Time;durP1;ratioP1;P1;durP2;ratioP2;P2;SDS_P1;SDS_P2;PMS_P1;PMS_P2;Temp;Humidity;BMP_temperature;BMP_pressure;BME280_temperature;BME280_humidity;BME280_pressure;Samples;Min_cycle;Max_cycle;Signal;HPM_P1;HPM_P2
2023/03/09 00:01:39;;;;;;;;;;;17.00;45.40;;;;;;10367609;28;881;-75
2023/03/09 00:06:35;;;;;;;;;;;17.00;45.30;;;;;;10366168;28;1906;-74
2023/03/09 00:11:30;;;;;;;;;;;17.00;45.40;;;;;;10366224;28;854;-74
2023/03/09 00:16:25;;;;;;;;;;;17.00;45.40;;;;;;10366810;28;778;-74
2023/03/09 00:21:36;;;;;;;;;;;17.00;45.30;;;;;;10370658;28;897;-74
2023/03/09 00:26:32;;;;;;;;;;;17.00;45.30;;;;;;10374085;28;1959;-74
2023/03/09 00:31:27;;;;;;;;;;;17.00;45.30;;;;;;10373984;28;872;-74
2023/03/09 00:36:23;;;;;;;;;;;17.00;45.30;;;;;;10374415;28;889;-74
2023/03/09 00:41:18;;;;;;;;;;;17.00;45.40;;;;;;10373982;28;1322;-74
2023/03/09 00:46:13;;;;;;;;;;;17.00;45.30;;;;;;10374162;28;1910;-74
2023/03/09 00:51:09;;;;;;;;;;;17.00;45.30;;;;;;10373336;28;867;-74
2023/03/09 00:56:04;;;;;;;;;;;17.00;45.40;;;;;;10355224;28;806;-74
2023/03/09 01:00:59;;;;;;;;;;;17.00;45.40;;;;;;10372899;28;891;-74
2023/03/09 01:05:56;;;;;;;;;;;17.00;45.40;;;;;;10372600;28;1910;-74
2023/03/09 01:10:51;;;;;;;;;;;16.90;45.40;;;;;;10372419;28;1008;-74
2023/03/09 01:15:47;;;;;;;;;;;17.00;45.40;;;;;;10371736;28;870;-74
2023/03/09 01:20:42;;;;;;;;;;;16.90;45.30;;;;;;10373493;28;862;-74
2023/03/09 01:25:37;;;;;;;;;;;16.90;45.30;;;;;;10372030;28;1968;-74
2023/03/09 01:30:33;;;;;;;;;;;16.90;45.30;;;;;;10371409;28;954;-74
2023/03/09 01:35:28;;;;;;;;;;;17.00;45.30;;;;;;10371466;28;772;-74
2023/03/09 01:40:23;;;;;;;;;;;16.90;45.30;;;;;;10370978;28;1140;-74
2023/03/09 01:45:19;;;;;;;;;;;16.90;45.30;;;;;;10371571;28;1910;-74
2023/03/09 01:50:14;;;;;;;;;;;16.90;45.20;;;;;;10371566;28;803;-74
2023/03/09 01:55:10;;;;;;;;;;;16.90;45.30;;;;;;10371379;28;929;-74
2023/03/09 02:00:07;;;;;;;;;;;16.90;45.30;;;;;;10370608;28;771;-74
2023/03/09 02:05:03;;;;;;;;;;;16.90;45.30;;;;;;10370226;28;1905;-74
2023/03/09 02:09:59;;;;;;;;;;;16.90;45.30;;;;;;10370341;28;1043;-74
2023/03/09 02:14:54;;;;;;;;;;;16.90;45.30;;;;;;10369981;28;866;-74
2023/03/09 02:19:49;;;;;;;;;;;16.90;45.30;;;;;;10370382;28;910;-74
2023/03/09 02:24:45;;;;;;;;;;;16.90;45.20;;;;;;10369561;28;1905;-74
2023/03/09 02:29:40;;;;;;;;;;;16.90;45.30;;;;;;10369549;28;863;-74
2023/03/09 02:34:35;;;;;;;;;;;16.90;45.20;;;;;;10369227;28;777;-74
2023/03/09 02:39:31;;;;;;;;;;;16.90;45.20;;;;;;10369287;28;1309;-74
2023/03/09 02:44:26;;;;;;;;;;;16.90;45.30;;;;;;10368613;28;1910;-74
2023/03/09 02:49:21;;;;;;;;;;;16.90;45.20;;;;;;10368646;28;852;-74
2023/03/09 02:54:17;;;;;;;;;;;16.90;45.10;;;;;;10368484;28;815;-74
2023/03/09 02:59:12;;;;;;;;;;;16.90;45.20;;;;;;10369057;28;834;-74
2023/03/09 03:04:07;;;;;;;;;;;16.90;45.20;;;;;;10368141;28;1956;-74
2023/03/09 03:09:03;;;;;;;;;;;16.90;45.30;;;;;;10367952;28;694;-74
2023/03/09 03:13:59;;;;;;;;;;;16.90;45.20;;;;;;10367717;28;803;-74
2023/03/09 03:18:56;;;;;;;;;;;16.90;45.20;;;;;;10367466;28;1096;-74
2023/03/09 03:23:51;;;;;;;;;;;16.90;45.20;;;;;;10368016;28;822;-74
2023/03/09 03:28:46;;;;;;;;;;;16.90;45.20;;;;;;10367162;28;1909;-74
2023/03/09 03:33:42;;;;;;;;;;;16.90;45.10;;;;;;10368007;28;773;-74
2023/03/09 03:38:37;;;;;;;;;;;16.90;45.20;;;;;;10366717;28;1023;-74
2023/03/09 03:43:33;;;;;;;;;;;16.90;45.20;;;;;;10367821;28;1376;-74
2023/03/09 03:48:28;;;;;;;;;;;16.90;45.10;;;;;;10367288;28;1909;-74
2023/03/09 03:53:23;;;;;;;;;;;16.90;45.10;;;;;;10366878;28;884;-73
2023/03/09 03:58:19;;;;;;;;;;;16.80;45.10;;;;;;10365624;28;842;-75
2023/03/09 04:03:14;;;;;;;;;;;16.90;45.20;;;;;;10366019;28;854;-76
2023/03/09 04:08:09;;;;;;;;;;;16.90;45.60;;;;;;10365510;28;1945;-76
2023/03/09 04:13:05;;;;;;;;;;;16.80;45.10;;;;;;10366085;28;796;-75
2023/03/09 04:18:00;;;;;;;;;;;16.90;45.10;;;;;;10366047;28;867;-75
2023/03/09 04:22:56;;;;;;;;;;;16.90;45.00;;;;;;10366753;28;893;-75
2023/03/09 04:27:51;;;;;;;;;;;16.80;45.00;;;;;;10363996;28;1906;-76
2023/03/09 04:32:47;;;;;;;;;;;16.90;45.00;;;;;;10365006;28;775;-75
2023/03/09 04:37:45;;;;;;;;;;;16.90;44.90;;;;;;10366060;28;813;-85
2023/03/09 04:42:41;;;;;;;;;;;16.80;44.90;;;;;;10366925;28;1153;-83
2023/03/09 04:47:36;;;;;;;;;;;16.80;45.00;;;;;;10365604;28;1902;-77
2023/03/09 04:52:31;;;;;;;;;;;16.90;44.90;;;;;;10365656;28;901;-77
2023/03/09 04:57:27;;;;;;;;;;;17.00;44.80;;;;;;10366540;28;973;-75
2023/03/09 05:02:22;;;;;;;;;;;17.00;44.70;;;;;;10365284;28;864;-75
2023/03/09 05:07:18;;;;;;;;;;;17.10;44.80;;;;;;10370086;28;1902;-75
2023/03/09 05:12:13;;;;;;;;;;;17.10;45.00;;;;;;10373632;28;1244;-75
2023/03/09 05:17:09;;;;;;;;;;;17.10;45.00;;;;;;10373144;28;838;-75
2023/03/09 05:22:04;;;;;;;;;;;17.20;45.10;;;;;;10372757;28;871;-72
2023/03/09 05:26:59;;;;;;;;;;;17.20;45.00;;;;;;10371681;28;1882;-77
2023/03/09 05:31:55;;;;;;;;;;;17.20;44.80;;;;;;10372277;28;858;-76
2023/03/09 05:36:50;;;;;;;;;;;17.20;44.80;;;;;;10372204;28;760;-76
2023/03/09 05:41:46;;;;;;;;;;;17.20;44.80;;;;;;10371294;28;1167;-76
2023/03/09 05:46:41;;;;;;;;;;;17.20;44.70;;;;;;10371121;28;1913;-76
2023/03/09 05:51:36;;;;;;;;;;;17.20;44.70;;;;;;10372430;28;870;-76
2023/03/09 05:56:32;;;;;;;;;;;17.20;44.70;;;;;;10371538;28;881;-76
2023/03/09 06:01:27;;;;;;;;;;;17.20;44.70;;;;;;10370617;28;853;-76
2023/03/09 06:06:22;;;;;;;;;;;17.20;44.70;;;;;;10370329;28;1906;-76
2023/03/09 06:11:18;;;;;;;;;;;17.30;44.60;;;;;;10370828;28;909;-76
2023/03/09 06:16:13;;;;;;;;;;;17.30;44.60;;;;;;10352680;28;1636;-76
2023/03/09 06:21:09;;;;;;;;;;;17.30;44.60;;;;;;10369913;28;845;-76
2023/03/09 06:26:04;;;;;;;;;;;17.30;44.60;;;;;;10369859;28;1906;-76
2023/03/09 06:31:00;;;;;;;;;;;17.30;44.40;;;;;;10369369;28;908;-76
2023/03/09 06:35:55;;;;;;;;;;;17.30;44.40;;;;;;10369196;28;961;-76
2023/03/09 06:40:50;;;;;;;;;;;17.30;44.50;;;;;;10369630;28;1104;-76
2023/03/09 06:45:46;;;;;;;;;;;17.30;44.40;;;;;;10368182;28;1965;-76
2023/03/09 06:50:41;;;;;;;;;;;17.30;44.30;;;;;;10368094;28;854;-76
2023/03/09 06:55:37;;;;;;;;;;;17.30;44.40;;;;;;10369094;28;896;-76
2023/03/09 07:00:37;;;;;;;;;;;17.30;44.40;;;;;;10368318;28;891;-76
2023/03/09 07:05:32;;;;;;;;;;;17.30;44.40;;;;;;10368549;28;1914;-76
2023/03/09 07:10:28;;;;;;;;;;;17.20;44.40;;;;;;10368511;28;835;-76
2023/03/09 07:15:23;;;;;;;;;;;17.20;44.40;;;;;;10368360;28;958;-76
2023/03/09 07:20:19;;;;;;;;;;;17.20;44.40;;;;;;10367629;28;874;-76
2023/03/09 07:25:14;;;;;;;;;;;17.20;44.60;;;;;;10368061;28;1942;-76
2023/03/09 07:30:10;;;;;;;;;;;17.10;44.60;;;;;;10367019;28;850;-76
2023/03/09 07:35:05;;;;;;;;;;;17.10;44.60;;;;;;10367070;28;812;-76
2023/03/09 07:40:00;;;;;;;;;;;17.20;44.60;;;;;;10366692;28;1323;-76
2023/03/09 07:44:56;;;;;;;;;;;17.30;44.40;;;;;;10367302;28;1980;-76
2023/03/09 07:49:51;;;;;;;;;;;17.20;44.40;;;;;;10367373;28;826;-76
2023/03/09 07:54:46;;;;;;;;;;;17.30;44.50;;;;;;10366534;28;984;-76
2023/03/09 07:59:42;;;;;;;;;;;17.30;44.40;;;;;;10366455;28;938;-76
2023/03/09 08:04:37;;;;;;;;;;;17.40;44.40;;;;;;10366803;28;1973;-76
2023/03/09 08:09:33;;;;;;;;;;;17.30;44.40;;;;;;10366292;28;945;-76
2023/03/09 08:14:29;;;;;;;;;;;17.30;44.30;;;;;;10366263;28;847;-76
2023/03/09 08:19:24;;;;;;;;;;;17.40;44.40;;;;;;10366098;28;826;-76
2023/03/09 08:24:19;;;;;;;;;;;17.30;44.40;;;;;;10365942;28;1910;-76
2023/03/09 08:29:15;;;;;;;;;;;17.30;44.40;;;;;;10366493;28;885;-76
2023/03/09 08:34:10;;;;;;;;;;;17.40;44.40;;;;;;10365818;28;786;-77
2023/03/09 08:39:06;;;;;;;;;;;17.40;44.50;;;;;;10366167;28;1252;-76
2023/03/09 08:44:01;;;;;;;;;;;17.40;44.40;;;;;;10372964;28;763;-76
2023/03/09 08:48:57;;;;;;;;;;;17.40;44.40;;;;;;10373524;28;1905;-76
2023/03/09 08:53:52;;;;;;;;;;;17.40;44.40;;;;;;10373318;28;906;-77
2023/03/09 08:58:47;;;;;;;;;;;17.40;44.40;;;;;;10373704;28;933;-76
2023/03/09 09:03:43;;;;;;;;;;;17.40;44.40;;;;;;10372851;28;988;-76
2023/03/09 09:08:38;;;;;;;;;;;17.40;44.40;;;;;;10372679;28;1898;-76
2023/03/09 09:13:34;;;;;;;;;;;17.40;44.30;;;;;;10373264;28;888;-76
2023/03/09 09:18:29;;;;;;;;;;;17.40;44.40;;;;;;10372949;28;870;-76
2023/03/09 09:23:24;;;;;;;;;;;17.40;44.40;;;;;;10372224;28;757;-77
2023/03/09 09:28:20;;;;;;;;;;;17.40;44.30;;;;;;10371802;28;1956;-76
2023/03/09 09:33:16;;;;;;;;;;;17.40;44.40;;;;;;10371223;28;866;-76
2023/03/09 09:38:13;;;;;;;;;;;17.50;44.30;;;;;;10371488;28;819;-76
2023/03/09 09:43:09;;;;;;;;;;;17.40;44.30;;;;;;10371655;28;1128;-76
2023/03/09 09:48:04;;;;;;;;;;;17.40;44.40;;;;;;10371709;28;1973;-76
2023/03/09 09:52:59;;;;;;;;;;;17.50;44.30;;;;;;10370605;28;819;-77
2023/03/09 09:57:55;;;;;;;;;;;17.50;44.40;;;;;;10370820;28;870;-76
2023/03/09 10:02:50;;;;;;;;;;;17.40;44.70;;;;;;10370634;28;930;-77
2023/03/09 10:07:46;;;;;;;;;;;17.50;44.30;;;;;;10370431;28;1902;-76
2023/03/09 10:12:41;;;;;;;;;;;17.50;44.30;;;;;;10370371;28;889;-76
2023/03/09 10:17:36;;;;;;;;;;;17.50;44.30;;;;;;10370651;28;822;-76
2023/03/09 10:22:33;;;;;;;;;;;17.50;44.30;;;;;;10371056;28;818;-76
2023/03/09 10:27:28;;;;;;;;;;;17.50;44.40;;;;;;10369573;28;1898;-76
2023/03/09 10:32:23;;;;;;;;;;;17.50;44.30;;;;;;10369549;28;877;-76
2023/03/09 10:37:19;;;;;;;;;;;17.50;44.30;;;;;;10369244;28;795;-76
2023/03/09 10:42:14;;;;;;;;;;;17.50;45.00;;;;;;10369494;28;1412;-76
2023/03/09 10:47:09;;;;;;;;;;;17.50;44.50;;;;;;10368830;28;1977;-76
2023/03/09 10:52:05;;;;;;;;;;;17.50;44.40;;;;;;10368095;28;921;-76
2023/03/09 10:57:01;;;;;;;;;;;17.50;44.30;;;;;;10369057;28;941;-76
2023/03/09 11:01:57;;;;;;;;;;;17.50;44.30;;;;;;10368272;28;938;-76
2023/03/09 11:06:52;;;;;;;;;;;17.60;44.30;;;;;;10368696;28;1963;-76
2023/03/09 11:11:48;;;;;;;;;;;17.50;44.30;;;;;;10368376;28;929;-76
2023/03/09 11:16:44;;;;;;;;;;;17.50;44.40;;;;;;10367682;28;976;-76
2023/03/09 11:21:39;;;;;;;;;;;17.50;44.30;;;;;;10367150;28;854;-76
2023/03/09 11:26:35;;;;;;;;;;;17.50;44.30;;;;;;10367327;28;1898;-76
2023/03/09 11:31:30;;;;;;;;;;;17.50;44.40;;;;;;10367189;28;861;-76
2023/03/09 11:36:26;;;;;;;;;;;17.60;44.40;;;;;;10367010;28;936;-75
2023/03/09 11:41:21;;;;;;;;;;;17.60;44.40;;;;;;10366342;28;1242;-76
2023/03/09 11:46:16;;;;;;;;;;;17.50;44.30;;;;;;10367371;28;1967;-76
2023/03/09 11:51:12;;;;;;;;;;;17.60;44.40;;;;;;10367262;28;853;-76
2023/03/09 11:56:07;;;;;;;;;;;17.50;44.40;;;;;;10367122;28;882;-76
2023/03/09 12:01:02;;;;;;;;;;;17.60;45.00;;;;;;10366513;28;815;-75
2023/03/09 12:05:58;;;;;;;;;;;17.60;44.40;;;;;;10366289;28;1955;-76
2023/03/09 12:10:53;;;;;;;;;;;17.50;44.40;;;;;;10366276;28;829;-75
2023/03/09 12:15:48;;;;;;;;;;;17.60;44.40;;;;;;10368261;28;861;-75
2023/03/09 12:20:44;;;;;;;;;;;17.60;44.30;;;;;;10374070;28;831;-75
2023/03/09 12:25:39;;;;;;;;;;;17.60;44.30;;;;;;10373785;28;1902;-75
2023/03/09 12:30:35;;;;;;;;;;;17.60;44.40;;;;;;10374856;28;839;-75
2023/03/09 12:35:30;;;;;;;;;;;17.60;44.40;;;;;;10374629;28;824;-75
2023/03/09 12:40:26;;;;;;;;;;;17.60;44.40;;;;;;10374202;28;1155;-75
2023/03/09 12:45:21;;;;;;;;;;;17.60;44.40;;;;;;10374239;28;1906;-75
2023/03/09 12:50:16;;;;;;;;;;;17.60;44.40;;;;;;10373524;28;890;-75
2023/03/09 12:55:12;;;;;;;;;;;17.60;44.50;;;;;;10374518;28;858;-77
2023/03/09 13:00:07;;;;;;;;;;;17.60;44.50;;;;;;10374261;28;842;-75
2023/03/09 13:05:03;;;;;;;;;;;17.60;44.40;;;;;;10372862;28;1965;-75
2023/03/09 13:09:58;;;;;;;;;;;17.60;44.50;;;;;;10373311;28;886;-75
2023/03/09 13:14:53;;;;;;;;;;;17.60;44.50;;;;;;10373784;28;894;-75
2023/03/09 13:19:49;;;;;;;;;;;17.60;44.50;;;;;;10372756;28;992;-75
2023/03/09 13:24:44;;;;;;;;;;;17.60;44.50;;;;;;10372170;28;1910;-77
2023/03/09 13:29:40;;;;;;;;;;;17.60;44.50;;;;;;10370570;28;811;-77
2023/03/09 13:34:35;;;;;;;;;;;17.60;44.60;;;;;;10373078;28;921;-77
2023/03/09 13:39:30;;;;;;;;;;;17.60;44.60;;;;;;10371456;28;1346;-76
2023/03/09 13:44:26;;;;;;;;;;;17.60;44.60;;;;;;10371325;28;1910;-77
2023/03/09 13:49:21;;;;;;;;;;;17.60;44.50;;;;;;10371789;28;898;-77
2023/03/09 13:54:16;;;;;;;;;;;17.60;44.60;;;;;;10371777;28;790;-76
2023/03/09 13:59:12;;;;;;;;;;;17.60;44.60;;;;;;10370877;28;823;-77
2023/03/09 14:04:07;;;;;;;;;;;17.60;44.60;;;;;;10370681;28;886;-77
2023/03/09 14:09:02;;;;;;;;;;;17.60;44.50;;;;;;10370399;28;1971;-77
2023/03/09 14:14:03;;;;;;;;;;;17.60;44.60;;;;;;10370892;28;869;-77
2023/03/09 14:18:59;;;;;;;;;;;17.60;44.60;;;;;;10370961;28;810;-77
2023/03/09 14:23:54;;;;;;;;;;;17.60;44.60;;;;;;10369884;28;858;-77
2023/03/09 14:28:50;;;;;;;;;;;17.70;44.60;;;;;;10369733;28;1906;-77
2023/03/09 14:33:45;;;;;;;;;;;17.60;44.60;;;;;;10370261;28;897;-77
2023/03/09 14:38:40;;;;;;;;;;;17.60;44.70;;;;;;10368457;28;794;-77
2023/03/09 14:43:36;;;;;;;;;;;17.60;44.60;;;;;;10369021;28;1380;-77
2023/03/09 14:48:31;;;;;;;;;;;17.60;44.60;;;;;;10369609;28;1980;-77
2023/03/09 14:53:26;;;;;;;;;;;17.60;44.70;;;;;;10369279;28;814;-77
2023/03/09 14:58:22;;;;;;;;;;;17.70;44.70;;;;;;10368989;28;791;-76
2023/03/09 15:03:17;;;;;;;;;;;17.70;44.70;;;;;;10368417;28;885;-76
2023/03/09 15:08:13;;;;;;;;;;;17.60;44.60;;;;;;10368051;28;1906;-76
2023/03/09 15:13:08;;;;;;;;;;;17.60;44.70;;;;;;10367891;28;944;-76
2023/03/09 15:18:03;;;;;;;;;;;17.60;44.60;;;;;;10367783;28;900;-76
2023/03/09 15:22:59;;;;;;;;;;;17.60;44.70;;;;;;10367646;28;777;-76
2023/03/09 15:27:54;;;;;;;;;;;17.60;44.70;;;;;;10367933;28;1969;-76
2023/03/09 15:32:49;;;;;;;;;;;17.60;44.70;;;;;;10367342;28;823;-76
2023/03/09 15:37:45;;;;;;;;;;;17.60;44.70;;;;;;10367717;28;803;-76
2023/03/09 15:42:40;;;;;;;;;;;17.70;44.70;;;;;;10367626;28;1114;-76
2023/03/09 15:47:36;;;;;;;;;;;17.70;44.60;;;;;;10367028;28;1918;-76
2023/03/09 15:52:31;;;;;;;;;;;17.60;44.70;;;;;;10366557;28;873;-76
2023/03/09 15:57:27;;;;;;;;;;;17.70;44.80;;;;;;10366022;28;949;-76
2023/03/09 16:02:22;;;;;;;;;;;17.70;44.80;;;;;;10366437;28;849;-76
2023/03/09 16:07:17;;;;;;;;;;;17.70;44.80;;;;;;10365669;28;1967;-76
2023/03/09 16:12:13;;;;;;;;;;;17.70;44.70;;;;;;10366877;28;931;-76
2023/03/09 16:17:08;;;;;;;;;;;17.70;44.70;;;;;;10366207;28;835;-76
2023/03/09 16:22:03;;;;;;;;;;;17.70;44.70;;;;;;10365997;28;865;-76
2023/03/09 16:26:59;;;;;;;;;;;17.70;44.70;;;;;;10365902;28;1969;-76
2023/03/09 16:31:54;;;;;;;;;;;17.70;44.70;;;;;;10366476;28;878;-76
2023/03/09 16:36:49;;;;;;;;;;;17.70;44.80;;;;;;10365827;28;868;-76
2023/03/09 16:41:45;;;;;;;;;;;17.70;44.80;;;;;;10366506;28;1370;-76
2023/03/09 16:46:40;;;;;;;;;;;17.70;44.70;;;;;;10365532;28;1976;-76
2023/03/09 16:51:36;;;;;;;;;;;17.70;44.70;;;;;;10366231;28;891;-76
2023/03/09 16:56:31;;;;;;;;;;;17.70;45.30;;;;;;10365406;28;853;-74
2023/03/09 17:01:26;;;;;;;;;;;17.70;44.70;;;;;;10366129;28;894;-75
2023/03/09 17:06:22;;;;;;;;;;;17.70;44.80;;;;;;10372188;28;1951;-75
2023/03/09 17:11:17;;;;;;;;;;;17.60;44.90;;;;;;10372138;28;881;-74
2023/03/09 17:16:12;;;;;;;;;;;17.50;45.20;;;;;;10373124;28;907;-75
2023/03/09 17:21:08;;;;;;;;;;;17.40;45.30;;;;;;10372616;28;929;-75
2023/03/09 17:26:03;;;;;;;;;;;17.40;45.30;;;;;;10372330;28;1898;-75
2023/03/09 17:30:59;;;;;;;;;;;17.40;45.40;;;;;;10371662;28;783;-76
2023/03/09 17:35:54;;;;;;;;;;;17.30;45.30;;;;;;10371526;28;807;-73
2023/03/09 17:40:49;;;;;;;;;;;17.30;45.30;;;;;;10371851;28;1151;-75
2023/03/09 17:45:45;;;;;;;;;;;17.30;45.30;;;;;;10371637;28;1913;-75
2023/03/09 17:50:40;;;;;;;;;;;17.30;45.30;;;;;;10370887;28;959;-75
2023/03/09 17:55:36;;;;;;;;;;;17.30;45.30;;;;;;10371829;28;831;-75
2023/03/09 18:00:33;;;;;;;;;;;17.30;45.30;;;;;;10371141;28;869;-75
2023/03/09 18:05:29;;;;;;;;;;;17.30;45.30;;;;;;10370218;28;1902;-75
2023/03/09 18:10:24;;;;;;;;;;;17.30;45.30;;;;;;10371138;28;885;-75
2023/03/09 18:15:20;;;;;;;;;;;17.30;45.30;;;;;;10369173;28;912;-75
2023/03/09 18:20:15;;;;;;;;;;;17.20;45.30;;;;;;10369662;28;877;-75
2023/03/09 18:25:10;;;;;;;;;;;17.20;45.30;;;;;;10369491;28;1959;-75
2023/03/09 18:30:07;;;;;;;;;;;17.20;45.30;;;;;;10369324;28;807;-74
2023/03/09 18:35:02;;;;;;;;;;;17.20;45.30;;;;;;10369829;28;848;-75
2023/03/09 18:39:58;;;;;;;;;;;17.20;45.30;;;;;;10369203;28;1300;-75
2023/03/09 18:44:53;;;;;;;;;;;17.20;45.40;;;;;;10369100;28;1977;-75
2023/03/09 18:49:49;;;;;;;;;;;17.20;45.40;;;;;;10369836;28;877;-74
2023/03/09 18:54:44;;;;;;;;;;;17.20;45.50;;;;;;10367840;28;827;-77
2023/03/09 18:59:40;;;;;;;;;;;17.20;45.40;;;;;;10368211;28;966;-76
2023/03/09 19:04:35;;;;;;;;;;;17.20;45.40;;;;;;10368014;28;1902;-75
2023/03/09 19:09:30;;;;;;;;;;;17.20;45.30;;;;;;10367827;28;988;-75
2023/03/09 19:14:26;;;;;;;;;;;17.20;45.30;;;;;;10367597;28;874;-75
2023/03/09 19:19:21;;;;;;;;;;;17.20;45.30;;;;;;10367996;28;792;-75
2023/03/09 19:24:17;;;;;;;;;;;17.20;45.30;;;;;;10367233;28;964;-75
2023/03/09 19:29:12;;;;;;;;;;;17.20;45.30;;;;;;10367078;28;1972;-72
2023/03/09 19:34:07;;;;;;;;;;;17.20;45.30;;;;;;10367526;28;834;-75
2023/03/09 19:39:03;;;;;;;;;;;17.30;45.30;;;;;;10366551;28;1519;-75
2023/03/09 19:43:58;;;;;;;;;;;17.30;45.30;;;;;;10366679;28;858;-75
2023/03/09 19:48:54;;;;;;;;;;;17.30;45.40;;;;;;10366406;28;1914;-77
2023/03/09 19:53:49;;;;;;;;;;;17.30;45.40;;;;;;10367003;28;758;-78
2023/03/09 19:58:44;;;;;;;;;;;17.20;45.40;;;;;;10366531;28;776;-73
2023/03/09 20:03:40;;;;;;;;;;;17.20;45.50;;;;;;10366520;28;823;-73
2023/03/09 20:08:35;;;;;;;;;;;17.20;45.40;;;;;;10366251;28;1969;-73
2023/03/09 20:13:31;;;;;;;;;;;17.20;45.40;;;;;;10366894;28;799;-73
2023/03/09 20:18:29;;;;;;;;;;;17.20;45.40;;;;;;10366197;28;797;-73
2023/03/09 20:23:24;;;;;;;;;;;17.20;45.40;;;;;;10366084;28;854;-73
2023/03/09 20:28:20;;;;;;;;;;;17.20;45.50;;;;;;10365927;28;1960;-73
2023/03/09 20:33:15;;;;;;;;;;;17.20;45.50;;;;;;10365924;28;860;-73
2023/03/09 20:38:10;;;;;;;;;;;17.20;45.50;;;;;;10370206;28;768;-73
2023/03/09 20:43:06;;;;;;;;;;;17.30;45.50;;;;;;10374893;28;1139;-73
2023/03/09 20:48:01;;;;;;;;;;;17.20;45.50;;;;;;10374647;28;1914;-73
2023/03/09 20:52:56;;;;;;;;;;;17.20;45.60;;;;;;10374496;28;867;-73
2023/03/09 20:57:52;;;;;;;;;;;17.10;45.60;;;;;;10373321;28;796;-73
2023/03/09 21:02:47;;;;;;;;;;;17.10;45.60;;;;;;10374572;28;882;-73
2023/03/09 21:07:43;;;;;;;;;;;17.20;45.70;;;;;;10372881;28;1906;-73
2023/03/09 21:12:38;;;;;;;;;;;17.20;45.70;;;;;;10373037;28;953;-73
2023/03/09 21:17:33;;;;;;;;;;;17.10;45.60;;;;;;10372632;28;842;-73
2023/03/09 21:22:29;;;;;;;;;;;17.10;45.60;;;;;;10372581;28;804;-73
2023/03/09 21:27:24;;;;;;;;;;;17.10;45.60;;;;;;10372189;28;1906;-72
2023/03/09 21:32:19;;;;;;;;;;;17.10;45.70;;;;;;10371446;28;976;-73
2023/03/09 21:37:15;;;;;;;;;;;17.10;45.80;;;;;;10371757;28;1150;-73
2023/03/09 21:42:10;;;;;;;;;;;17.10;45.70;;;;;;10371110;28;1199;-73
2023/03/09 21:47:06;;;;;;;;;;;17.10;45.60;;;;;;10371455;28;1967;-73
2023/03/09 21:52:01;;;;;;;;;;;17.10;45.60;;;;;;10370041;28;1103;-73
2023/03/09 21:56:56;;;;;;;;;;;17.10;45.80;;;;;;10371079;28;937;-73
2023/03/09 22:01:52;;;;;;;;;;;17.10;45.80;;;;;;10371227;28;860;-73
2023/03/09 22:06:47;;;;;;;;;;;17.10;45.80;;;;;;10370968;28;1894;-73
2023/03/09 22:11:43;;;;;;;;;;;17.10;45.80;;;;;;10371074;28;829;-73
2023/03/09 22:16:38;;;;;;;;;;;17.10;45.80;;;;;;10370279;28;866;-73
2023/03/09 22:21:33;;;;;;;;;;;17.10;45.80;;;;;;10370099;28;869;-73
2023/03/09 22:26:29;;;;;;;;;;;17.00;45.80;;;;;;10369753;28;1893;-73
2023/03/09 22:31:26;;;;;;;;;;;17.10;45.90;;;;;;10369662;28;829;-72
2023/03/09 22:36:22;;;;;;;;;;;17.10;45.90;;;;;;10369484;28;882;-73
2023/03/09 22:41:17;;;;;;;;;;;17.00;45.80;;;;;;10369151;28;1240;-73
2023/03/09 22:46:13;;;;;;;;;;;17.00;45.80;;;;;;10369614;28;1914;-73
2023/03/09 22:51:08;;;;;;;;;;;17.00;45.90;;;;;;10369576;28;843;-72
2023/03/09 22:56:03;;;;;;;;;;;17.00;45.80;;;;;;10369956;28;932;-72
2023/03/09 23:00:59;;;;;;;;;;;17.00;45.80;;;;;;10368244;28;945;-73
2023/03/09 23:05:54;;;;;;;;;;;17.00;45.80;;;;;;10368727;28;1968;-73
2023/03/09 23:10:50;;;;;;;;;;;17.00;45.80;;;;;;10368385;28;989;-72
2023/03/09 23:15:46;;;;;;;;;;;17.00;45.80;;;;;;10368173;28;838;-72
2023/03/09 23:20:42;;;;;;;;;;;17.00;45.90;;;;;;10367976;28;851;-73
2023/03/09 23:25:37;;;;;;;;;;;17.00;45.90;;;;;;10367578;28;1957;-72
2023/03/09 23:30:33;;;;;;;;;;;17.00;45.80;;;;;;10367480;28;834;-73
2023/03/09 23:35:28;;;;;;;;;;;17.00;45.90;;;;;;10367545;28;857;-72
2023/03/09 23:40:23;;;;;;;;;;;17.00;45.90;;;;;;10366933;28;1144;-72
2023/03/09 23:45:20;;;;;;;;;;;17.00;45.90;;;;;;10367478;28;1914;-72
2023/03/09 23:50:15;;;;;;;;;;;17.00;45.80;;;;;;10367378;28;802;-72
2023/03/09 23:55:10;;;;;;;;;;;17.10;45.90;;;;;;10366842;28;858;-72
